createdAt,value
2023-02-23T00:02:21.680Z,101020.11
2023-02-23T00:04:50.631Z,101015.77
2023-02-23T00:07:20.642Z,101019.31
2023-02-23T00:09:49.208Z,101018.89
2023-02-23T00:12:17.949Z,101025.73
2023-02-23T00:14:47.009Z,101026.85
2023-02-23T00:17:17.840Z,101026.35
2023-02-23T00:19:49.652Z,101020.63
2023-02-23T00:22:18.598Z,101018.19
2023-02-23T00:24:48.182Z,101018.84
2023-02-23T00:27:21.451Z,101020.98
2023-02-23T00:29:51.316Z,101021.80
2023-02-23T00:32:20.523Z,101021.77
2023-02-23T00:34:52.994Z,101021.24
2023-02-23T00:37:23.303Z,101021.43
2023-02-23T00:39:53.137Z,101021.17
2023-02-23T00:42:22.232Z,101022.34
2023-02-23T00:44:51.228Z,101019.28
2023-02-23T00:47:20.160Z,101018.41
2023-02-23T00:49:51.371Z,101012.23
2023-02-23T00:52:21.174Z,101011.79
2023-02-23T00:54:50.172Z,101014.10
2023-02-23T00:57:19.268Z,101016.66
2023-02-23T00:59:48.464Z,101009.37
2023-02-23T01:02:17.221Z,101005.67
2023-02-23T01:04:46.245Z,101006.41
2023-02-23T01:07:15.137Z,101009.05
2023-02-23T01:09:44.025Z,101013.10
2023-02-23T01:12:12.878Z,101011.77
2023-02-23T01:14:42.831Z,101004.29
2023-02-23T01:17:12.536Z,101001.23
2023-02-23T01:19:41.328Z,100999.93
2023-02-23T01:22:10.326Z,100996.44
2023-02-23T01:24:41.155Z,101001.16
2023-02-23T01:27:09.856Z,101004.66
2023-02-23T01:29:38.860Z,101006.98
2023-02-23T01:32:09.237Z,101011.56
2023-02-23T01:34:38.061Z,101012.17
2023-02-23T01:37:06.940Z,101011.02
2023-02-23T01:39:35.833Z,101011.65
2023-02-23T01:42:05.762Z,101014.67
2023-02-23T01:44:39.775Z,101016.71
2023-02-23T01:47:09.061Z,101017.61
2023-02-23T01:49:37.867Z,101018.85
2023-02-23T01:52:17.373Z,101014.60
2023-02-23T01:54:54.317Z,101017.83
2023-02-23T01:57:27.466Z,101023.07
2023-02-23T01:59:56.355Z,101022.94
2023-02-23T02:02:34.004Z,101023.02
2023-02-23T02:05:06.602Z,101025.91
2023-02-23T02:07:35.813Z,101023.19
2023-02-23T02:10:11.003Z,101021.09
2023-02-23T02:12:52.366Z,101021.65
2023-02-23T02:15:26.322Z,101022.95
2023-02-23T02:18:23.833Z,101023.29
2023-02-23T02:20:56.098Z,101027.12
2023-02-23T02:23:27.751Z,101029.20
2023-02-23T02:26:49.072Z,101025.52
2023-02-23T02:30:02.183Z,101027.02
2023-02-23T02:32:47.683Z,101031.97
2023-02-23T02:35:34.769Z,101032.61
2023-02-23T02:38:54.182Z,101034.26
2023-02-23T02:41:51.536Z,101037.22
2023-02-23T02:44:26.469Z,101037.11
2023-02-23T02:47:02.646Z,101041.80
2023-02-23T02:50:10.593Z,101041.35
2023-02-23T02:52:58.322Z,101039.83
2023-02-23T02:55:34.436Z,101044.54
2023-02-23T02:58:08.289Z,101045.54
2023-02-23T03:01:00.513Z,101048.20
2023-02-23T03:03:51.600Z,101054.28
2023-02-23T03:06:43.352Z,101056.69
2023-02-23T03:09:42.325Z,101061.58
2023-02-23T03:12:51.355Z,101066.59
2023-02-23T03:15:52.340Z,101070.36
2023-02-23T03:18:58.460Z,101079.07
2023-02-23T03:22:11.386Z,101083.25
2023-02-23T03:25:29.294Z,101087.98
2023-02-23T03:28:36.821Z,101091.71
2023-02-23T03:31:40.893Z,101094.48
2023-02-23T03:34:35.433Z,101093.89
2023-02-23T03:37:35.144Z,101093.38
2023-02-23T03:40:36.600Z,101093.48
2023-02-23T03:43:30.170Z,101092.51
2023-02-23T03:46:22.003Z,101090.59
2023-02-23T03:49:11.884Z,101093.39
2023-02-23T03:52:04.430Z,101090.64
2023-02-23T03:55:01.159Z,101089.82
2023-02-23T03:57:53.514Z,101091.04
2023-02-23T04:00:49.436Z,101089.79
2023-02-23T04:03:39.260Z,101086.35
2023-02-23T04:06:30.026Z,101095.91
2023-02-23T04:09:24.104Z,101096.95
2023-02-23T04:12:15.874Z,101100.92
2023-02-23T04:14:55.023Z,101100.71
2023-02-23T04:17:29.340Z,101102.66
2023-02-23T04:19:58.141Z,101108.96
2023-02-23T04:22:26.856Z,101104.76
2023-02-23T04:24:55.325Z,101104.17
2023-02-23T04:27:24.197Z,101104.60
2023-02-23T04:29:53.127Z,101107.55
2023-02-23T04:32:21.923Z,101103.73
2023-02-23T04:34:51.016Z,101104.27
2023-02-23T04:37:20.001Z,101105.45
2023-02-23T04:39:51.469Z,101102.62
2023-02-23T04:42:20.454Z,101103.46
2023-02-23T04:44:49.641Z,101103.36
2023-02-23T04:47:18.331Z,101104.71
2023-02-23T04:49:46.919Z,101107.72
2023-02-23T04:52:15.920Z,101114.36
2023-02-23T04:54:45.389Z,101122.91
2023-02-23T04:57:14.103Z,101123.63
2023-02-23T04:59:43.096Z,101124.86
2023-02-23T05:02:12.225Z,101129.41
2023-02-23T05:04:40.699Z,101135.88
2023-02-23T05:07:09.346Z,101134.54
2023-02-23T05:09:38.324Z,101142.94
2023-02-23T05:12:07.043Z,101150.79
2023-02-23T05:14:36.150Z,101159.40
2023-02-23T05:17:05.393Z,101165.58
2023-02-23T05:19:35.661Z,101165.66
2023-02-23T05:22:04.855Z,101167.54
2023-02-23T05:24:33.767Z,101168.98
2023-02-23T05:27:02.361Z,101169.15
2023-02-23T05:29:31.135Z,101178.86
2023-02-23T05:31:59.885Z,101179.79
2023-02-23T05:34:28.868Z,101177.67
2023-02-23T05:36:57.699Z,101175.09
2023-02-23T05:39:26.256Z,101181.86
2023-02-23T05:41:54.845Z,101186.17
2023-02-23T05:44:24.787Z,101187.98
2023-02-23T05:46:53.880Z,101197.23
2023-02-23T05:49:22.865Z,101201.10
2023-02-23T05:51:51.961Z,101210.11
2023-02-23T05:54:20.853Z,101209.18
2023-02-23T05:56:49.436Z,101213.12
2023-02-23T05:59:18.447Z,101219.30
2023-02-23T06:01:47.338Z,101223.12
2023-02-23T06:04:17.448Z,101231.15
2023-02-23T06:06:46.646Z,101238.52
2023-02-23T06:09:15.839Z,101240.65
2023-02-23T06:11:44.950Z,101250.80
2023-02-23T06:14:13.624Z,101250.25
2023-02-23T06:16:45.598Z,101253.33
2023-02-23T06:19:14.662Z,101257.30
2023-02-23T06:21:43.453Z,101257.21
2023-02-23T06:24:12.774Z,101263.26
2023-02-23T06:26:43.431Z,101267.54
2023-02-23T06:29:13.999Z,101272.13
2023-02-23T06:31:42.898Z,101272.20
2023-02-23T06:34:11.820Z,101276.38
2023-02-23T06:36:40.733Z,101279.48
2023-02-23T06:39:11.512Z,101287.35
2023-02-23T06:41:40.028Z,101288.74
2023-02-23T06:44:09.238Z,101289.08
2023-02-23T06:46:38.284Z,101297.19
2023-02-23T06:49:06.915Z,101295.34
2023-02-23T06:51:35.797Z,101300.17
2023-02-23T06:54:04.696Z,101296.02
2023-02-23T06:56:33.378Z,101297.11
2023-02-23T06:59:02.267Z,101297.71
2023-02-23T07:01:31.386Z,101295.34
2023-02-23T07:04:00.317Z,101296.06
2023-02-23T07:06:29.657Z,101300.98
2023-02-23T07:08:58.711Z,101301.76
2023-02-23T07:11:27.345Z,101305.01
2023-02-23T07:13:59.362Z,101306.30
2023-02-23T07:16:28.495Z,101303.61
2023-02-23T07:18:57.292Z,101302.89
2023-02-23T07:21:25.970Z,101302.75
2023-02-23T07:23:54.660Z,101306.96
2023-02-23T07:26:23.766Z,101307.69
2023-02-23T07:28:54.144Z,101310.32
2023-02-23T07:31:23.248Z,101316.02
2023-02-23T07:33:53.074Z,101317.83
2023-02-23T07:36:23.374Z,101318.05
2023-02-23T07:38:51.935Z,101318.11
2023-02-23T07:41:21.020Z,101322.36
2023-02-23T07:43:50.092Z,101323.48
2023-02-23T07:46:18.985Z,101323.34
2023-02-23T07:48:47.876Z,101323.04
2023-02-23T07:51:17.964Z,101327.34
2023-02-23T07:53:46.887Z,101333.10
2023-02-23T07:56:15.737Z,101333.88
2023-02-23T07:58:45.507Z,101337.03
2023-02-23T08:01:14.867Z,101345.08
2023-02-23T08:03:49.927Z,101343.91
2023-02-23T08:06:19.950Z,101345.33
2023-02-23T08:08:48.629Z,101349.20
2023-02-23T08:11:17.508Z,101345.02
2023-02-23T08:13:46.211Z,101346.98
2023-02-23T08:16:16.705Z,101347.53
2023-02-23T08:18:46.826Z,101348.73
2023-02-23T08:21:16.054Z,101350.55
2023-02-23T08:23:45.073Z,101353.55
2023-02-23T08:26:14.042Z,101357.09
2023-02-23T08:28:45.594Z,101356.99
2023-02-23T08:31:16.692Z,101362.52
2023-02-23T08:33:45.631Z,101364.11
2023-02-23T08:36:14.317Z,101365.04
2023-02-23T08:38:43.311Z,101365.67
2023-02-23T08:41:11.899Z,101368.41
2023-02-23T08:43:40.581Z,101371.35
2023-02-23T08:46:09.426Z,101380.17
2023-02-23T08:48:40.742Z,101385.38
2023-02-23T08:51:09.425Z,101383.30
2023-02-23T08:53:38.301Z,101387.44
2023-02-23T08:56:08.581Z,101391.10
2023-02-23T08:58:37.817Z,101389.10
2023-02-23T09:01:06.597Z,101393.21
2023-02-23T09:03:38.824Z,101390.58
2023-02-23T09:06:20.438Z,101397.89
2023-02-23T09:08:49.994Z,101396.02
2023-02-23T09:11:19.160Z,101392.98
2023-02-23T09:13:48.260Z,101393.70
2023-02-23T09:16:17.214Z,101395.25
2023-02-23T09:18:45.932Z,101396.17
2023-02-23T09:21:21.476Z,101400.98
2023-02-23T09:23:52.992Z,101408.57
2023-02-23T09:26:22.496Z,101406.45
2023-02-23T09:28:51.752Z,101406.91
2023-02-23T09:31:23.144Z,101408.45
2023-02-23T09:33:53.025Z,101407.40
2023-02-23T09:36:24.798Z,101411.34
2023-02-23T09:38:57.472Z,101409.40
2023-02-23T09:41:26.343Z,101411.12
2023-02-23T09:44:03.070Z,101415.05
2023-02-23T09:46:45.806Z,101419.91
2023-02-23T09:49:23.391Z,101425.27
2023-02-23T09:51:57.838Z,101423.87
2023-02-23T09:54:30.834Z,101423.08
2023-02-23T09:57:03.696Z,101423.61
2023-02-23T09:59:33.543Z,101424.34
2023-02-23T10:02:23.530Z,101423.88
2023-02-23T10:05:11.754Z,101423.20
2023-02-23T10:07:46.916Z,101429.27
2023-02-23T10:10:37.098Z,101434.08
2023-02-23T10:13:30.462Z,101431.90
2023-02-23T10:16:12.763Z,101431.35
2023-02-23T10:18:52.691Z,101433.08
2023-02-23T10:21:21.614Z,101428.92
2023-02-23T10:24:00.445Z,101442.00
2023-02-23T10:26:54.603Z,101439.90
2023-02-23T10:29:37.537Z,101442.54
2023-02-23T10:32:46.467Z,101441.16
2023-02-23T10:35:18.393Z,101444.15
2023-02-23T10:37:52.341Z,101443.41
2023-02-23T10:40:24.588Z,101443.40
2023-02-23T10:42:53.703Z,101445.38
2023-02-23T10:45:25.971Z,101447.52
2023-02-23T10:48:04.269Z,101447.06
2023-02-23T10:50:34.405Z,101443.30
2023-02-23T10:53:19.070Z,101441.55
2023-02-23T10:56:17.039Z,101438.47
2023-02-23T10:58:53.413Z,101435.80
2023-02-23T11:02:01.524Z,101433.91
2023-02-23T11:04:33.132Z,101437.02
2023-02-23T11:07:10.049Z,101429.32
2023-02-23T11:09:47.149Z,101424.62
2023-02-23T11:12:17.059Z,101427.65
2023-02-23T11:14:46.256Z,101424.94
2023-02-23T11:17:28.855Z,101425.38
2023-02-23T11:20:39.941Z,101426.95
2023-02-23T11:23:30.541Z,101425.31
2023-02-23T11:26:02.059Z,101425.08
2023-02-23T11:28:34.669Z,101428.73
2023-02-23T11:31:28.973Z,101426.67
2023-02-23T11:33:58.765Z,101426.19
2023-02-23T11:36:33.391Z,101425.77
2023-02-23T11:39:04.391Z,101429.38
2023-02-23T11:41:35.772Z,101427.45
2023-02-23T11:44:06.409Z,101430.66
2023-02-23T11:46:40.145Z,101429.80
2023-02-23T11:49:27.258Z,101433.98
2023-02-23T11:51:56.441Z,101433.63
2023-02-23T11:54:31.313Z,101441.15
2023-02-23T11:57:03.037Z,101442.13
2023-02-23T11:59:33.939Z,101446.27
2023-02-23T12:02:19.753Z,101443.85
2023-02-23T12:04:49.958Z,101442.35
2023-02-23T12:07:35.149Z,101445.61
2023-02-23T12:10:26.794Z,101449.42
2023-02-23T12:13:05.121Z,101453.73
2023-02-23T12:15:41.248Z,101450.98
2023-02-23T12:18:32.905Z,101446.11
2023-02-23T12:21:25.523Z,101447.61
2023-02-23T12:24:06.805Z,101451.55
2023-02-23T12:27:01.924Z,101448.58
2023-02-23T12:30:00.597Z,101450.48
2023-02-23T12:32:38.104Z,101451.53
2023-02-23T12:35:15.213Z,101451.67
2023-02-23T12:37:51.739Z,101457.05
2023-02-23T12:40:34.934Z,101452.65
2023-02-23T12:43:19.014Z,101460.86
2023-02-23T12:46:08.563Z,101460.44
2023-02-23T12:49:17.322Z,101454.39
2023-02-23T12:52:03.069Z,101455.04
2023-02-23T12:54:33.067Z,101453.21
2023-02-23T12:57:28.537Z,101452.23
2023-02-23T13:00:33.082Z,101451.52
2023-02-23T13:03:15.344Z,101452.06
2023-02-23T13:06:05.946Z,101452.58
2023-02-23T13:09:13.672Z,101450.64
2023-02-23T13:12:22.001Z,101459.63
2023-02-23T13:15:30.202Z,101456.58
2023-02-23T13:18:09.225Z,101454.11
2023-02-23T13:20:45.390Z,101451.35
2023-02-23T13:23:32.535Z,101451.38
2023-02-23T13:26:06.181Z,101446.47
2023-02-23T13:28:57.123Z,101449.59
2023-02-23T13:31:30.958Z,101455.14
2023-02-23T13:34:02.105Z,101455.73
2023-02-23T13:36:34.529Z,101456.89
2023-02-23T13:39:36.834Z,101457.52
2023-02-23T13:42:11.554Z,101462.73
2023-02-23T13:44:49.547Z,101464.30
2023-02-23T13:47:46.197Z,101466.45
2023-02-23T13:50:28.493Z,101465.48
2023-02-23T13:53:05.115Z,101464.92
2023-02-23T13:55:49.970Z,101469.74
2023-02-23T13:58:26.200Z,101470.23
2023-02-23T14:01:15.415Z,101476.04
2023-02-23T14:03:54.845Z,101475.63
2023-02-23T14:06:27.143Z,101472.66
2023-02-23T14:09:01.386Z,101474.70
2023-02-23T14:11:35.200Z,101477.33
2023-02-23T14:14:04.826Z,101476.95
2023-02-23T14:16:33.833Z,101475.08
2023-02-23T14:19:31.365Z,101480.30
2023-02-23T14:22:06.303Z,101473.48
2023-02-23T14:24:35.597Z,101472.60
2023-02-23T14:27:44.544Z,101469.93
2023-02-23T14:30:13.521Z,101475.58
2023-02-23T14:32:47.713Z,101468.14
2023-02-23T14:35:34.447Z,101473.71
2023-02-23T14:38:25.180Z,101467.98
2023-02-23T14:40:55.791Z,101471.45
2023-02-23T14:43:38.450Z,101469.29
2023-02-23T14:46:13.878Z,101468.89
2023-02-23T14:48:45.979Z,101468.38
2023-02-23T14:51:34.458Z,101468.87
2023-02-23T14:54:11.751Z,101469.95
2023-02-23T14:56:47.986Z,101469.30
2023-02-23T14:59:28.621Z,101469.36
2023-02-23T15:02:01.333Z,101468.23
2023-02-23T15:04:30.480Z,101468.42
2023-02-23T15:07:02.836Z,101472.81
2023-02-23T15:09:43.180Z,101472.73
2023-02-23T15:12:38.281Z,101481.20
2023-02-23T15:15:17.672Z,101482.82
2023-02-23T15:17:50.297Z,101484.00
2023-02-23T15:20:28.955Z,101483.95
2023-02-23T15:22:59.753Z,101488.25
2023-02-23T15:25:39.788Z,101479.45
2023-02-23T15:28:25.600Z,101477.54
2023-02-23T15:30:56.750Z,101480.58
2023-02-23T15:33:29.084Z,101480.60
2023-02-23T15:36:18.073Z,101473.77
2023-02-23T15:38:50.099Z,101481.04
2023-02-23T15:41:35.058Z,101481.52
2023-02-23T15:44:08.000Z,101487.56
2023-02-23T15:46:37.838Z,101486.77
2023-02-23T15:49:07.124Z,101487.20
2023-02-23T15:51:50.342Z,101482.63
2023-02-23T15:54:30.254Z,101485.05
2023-02-23T15:57:04.559Z,101493.81
2023-02-23T15:59:38.677Z,101490.35
2023-02-23T16:02:18.239Z,101491.06
2023-02-23T16:04:52.881Z,101498.85
2023-02-23T16:07:21.772Z,101502.01
2023-02-23T16:09:56.469Z,101507.86
2023-02-23T16:12:39.400Z,101507.06
2023-02-23T16:15:29.922Z,101506.52
2023-02-23T16:18:01.374Z,101506.61
2023-02-23T16:20:41.593Z,101510.23
2023-02-23T16:23:34.085Z,101511.39
2023-02-23T16:26:16.171Z,101516.59
2023-02-23T16:28:47.095Z,101512.12
2023-02-23T16:31:28.281Z,101511.80
2023-02-23T16:34:00.298Z,101515.90
2023-02-23T16:36:39.961Z,101518.09
2023-02-23T16:39:12.602Z,101517.38
2023-02-23T16:41:41.263Z,101518.85
2023-02-23T16:44:20.225Z,101527.37
2023-02-23T16:47:05.568Z,101525.29
2023-02-23T16:49:34.358Z,101527.58
2023-02-23T16:52:16.048Z,101527.31
2023-02-23T16:54:48.016Z,101528.02
2023-02-23T16:57:30.949Z,101525.20
2023-02-23T17:00:00.808Z,101528.73
2023-02-23T17:02:29.528Z,101530.52
2023-02-23T17:04:59.132Z,101528.41
2023-02-23T17:07:28.036Z,101529.46
2023-02-23T17:09:57.190Z,101530.08
2023-02-23T17:12:25.713Z,101527.79
2023-02-23T17:14:54.430Z,101531.23
2023-02-23T17:17:23.410Z,101528.30
2023-02-23T17:19:51.976Z,101529.20
2023-02-23T17:22:20.780Z,101530.08
2023-02-23T17:24:49.964Z,101534.52
2023-02-23T17:27:18.761Z,101537.05
2023-02-23T17:29:47.543Z,101537.10
2023-02-23T17:32:17.143Z,101536.71
2023-02-23T17:34:46.124Z,101537.66
2023-02-23T17:37:15.026Z,101536.93
2023-02-23T17:39:44.531Z,101539.70
2023-02-23T17:42:14.770Z,101535.64
2023-02-23T17:44:43.747Z,101538.05
2023-02-23T17:47:12.536Z,101538.05
2023-02-23T17:49:41.118Z,101537.95
2023-02-23T17:52:10.004Z,101542.55
2023-02-23T17:54:38.797Z,101544.68
2023-02-23T17:57:07.391Z,101543.54
2023-02-23T17:59:36.453Z,101540.52
2023-02-23T18:02:06.857Z,101539.63
2023-02-23T18:04:38.357Z,101540.98
2023-02-23T18:07:08.475Z,101539.50
2023-02-23T18:09:37.617Z,101538.58
2023-02-23T18:12:07.170Z,101539.95
2023-02-23T18:14:37.983Z,101541.28
2023-02-23T18:17:06.832Z,101545.05
2023-02-23T18:19:35.582Z,101546.59
2023-02-23T18:22:04.758Z,101544.96
2023-02-23T18:24:33.694Z,101542.98
2023-02-23T18:27:02.889Z,101540.66
2023-02-23T18:29:34.443Z,101541.14
2023-02-23T18:32:05.590Z,101543.43
2023-02-23T18:34:35.249Z,101537.47
2023-02-23T18:37:04.321Z,101543.23
2023-02-23T18:39:33.641Z,101540.41
2023-02-23T18:42:04.480Z,101540.73
2023-02-23T18:44:35.182Z,101545.98
2023-02-23T18:47:04.196Z,101547.85
2023-02-23T18:49:32.857Z,101547.98
2023-02-23T18:52:01.424Z,101549.38
2023-02-23T18:54:30.323Z,101550.64
2023-02-23T18:56:59.207Z,101547.45
2023-02-23T18:59:27.788Z,101549.85
2023-02-23T19:01:56.883Z,101555.27
2023-02-23T19:04:28.542Z,101555.67
2023-02-23T19:06:57.427Z,101556.73
2023-02-23T19:09:26.940Z,101563.39
2023-02-23T19:11:55.417Z,101559.48
2023-02-23T19:14:46.487Z,101561.21
2023-02-23T19:17:14.295Z,101563.48
2023-02-23T19:19:43.386Z,101561.33
2023-02-23T19:22:12.279Z,101566.83
2023-02-23T19:24:41.169Z,101568.95
2023-02-23T19:27:12.722Z,101571.02
2023-02-23T19:29:43.528Z,101572.89
2023-02-23T19:32:14.619Z,101577.64
2023-02-23T19:34:46.552Z,101581.98
2023-02-23T19:37:20.601Z,101581.81
2023-02-23T19:39:50.635Z,101581.41
2023-02-23T19:42:20.715Z,101583.47
2023-02-23T19:44:49.405Z,101581.50
2023-02-23T19:47:17.990Z,101577.54
2023-02-23T19:49:46.781Z,101577.54
2023-02-23T19:52:15.565Z,101578.79
2023-02-23T19:54:45.074Z,101574.32
2023-02-23T19:57:13.554Z,101572.28
2023-02-23T19:59:42.405Z,101573.66
2023-02-23T20:02:11.867Z,101570.45
2023-02-23T20:04:40.534Z,101565.60
2023-02-23T20:07:12.088Z,101567.14
2023-02-23T20:09:40.980Z,101559.86
2023-02-23T20:12:10.007Z,101565.77
2023-02-23T20:14:39.715Z,101567.97
2023-02-23T20:17:09.598Z,101567.64
2023-02-23T20:19:38.493Z,101563.02
2023-02-23T20:22:09.069Z,101562.36
2023-02-23T20:24:38.010Z,101565.17
2023-02-23T20:27:06.776Z,101564.42
2023-02-23T20:29:35.697Z,101564.20
2023-02-23T20:32:06.066Z,101558.78
2023-02-23T20:34:36.027Z,101560.45
2023-02-23T20:37:05.025Z,101556.23
2023-02-23T20:39:33.718Z,101554.36
2023-02-23T20:42:02.188Z,101553.64
2023-02-23T20:44:33.307Z,101551.40
2023-02-23T20:47:02.740Z,101552.52
2023-02-23T20:49:31.224Z,101548.00
2023-02-23T20:52:00.190Z,101547.32
2023-02-23T20:54:29.416Z,101550.34
2023-02-23T20:57:07.829Z,101549.05
2023-02-23T20:59:37.948Z,101551.84
2023-02-23T21:02:08.456Z,101548.60
2023-02-23T21:04:38.808Z,101538.80
2023-02-23T21:07:07.902Z,101534.23
2023-02-23T21:09:40.355Z,101528.00
2023-02-23T21:12:14.088Z,101530.69
2023-02-23T21:14:42.776Z,101532.45
2023-02-23T21:17:11.456Z,101533.76
2023-02-23T21:19:39.942Z,101534.44
2023-02-23T21:22:09.829Z,101531.36
2023-02-23T21:24:41.448Z,101528.98
2023-02-23T21:27:13.282Z,101526.35
2023-02-23T21:29:43.228Z,101524.23
2023-02-23T21:32:14.690Z,101522.08
2023-02-23T21:34:43.982Z,101526.13
2023-02-23T21:37:12.993Z,101526.94
2023-02-23T21:39:42.235Z,101524.23
2023-02-23T21:42:10.817Z,101520.35
2023-02-23T21:44:39.405Z,101519.00
2023-02-23T21:47:08.496Z,101514.37
2023-02-23T21:49:38.743Z,101511.46
2023-02-23T21:52:08.604Z,101518.02
2023-02-23T21:54:37.421Z,101510.33
2023-02-23T21:57:06.217Z,101515.73
2023-02-23T21:59:35.202Z,101511.70
2023-02-23T22:02:04.143Z,101511.78
2023-02-23T22:04:33.500Z,101511.35
2023-02-23T22:07:03.106Z,101510.50
2023-02-23T22:09:31.859Z,101507.18
2023-02-23T22:12:00.590Z,101502.27
2023-02-23T22:14:29.364Z,101503.21
2023-02-23T22:16:58.189Z,101500.13
2023-02-23T22:19:27.158Z,101495.52
2023-02-23T22:21:55.753Z,101495.21
2023-02-23T22:24:24.830Z,101491.56
2023-02-23T22:26:56.857Z,101489.88
2023-02-23T22:29:26.987Z,101491.52
2023-02-23T22:31:56.343Z,101486.68
2023-02-23T22:34:25.005Z,101486.23
2023-02-23T22:36:53.896Z,101479.82
2023-02-23T22:39:22.587Z,101475.42
2023-02-23T22:41:51.686Z,101476.40
2023-02-23T22:44:21.704Z,101478.84
2023-02-23T22:46:50.908Z,101474.70
2023-02-23T22:49:20.533Z,101474.05
2023-02-23T22:51:50.931Z,101471.82
2023-02-23T22:54:23.924Z,101466.89
2023-02-23T22:56:52.913Z,101463.77
2023-02-23T22:59:21.847Z,101462.10
2023-02-23T23:01:50.694Z,101460.02
2023-02-23T23:04:22.468Z,101456.92
2023-02-23T23:06:51.342Z,101449.21
2023-02-23T23:09:21.480Z,101443.21
2023-02-23T23:11:54.139Z,101441.05
2023-02-23T23:14:23.543Z,101437.66
2023-02-23T23:16:52.121Z,101435.46
2023-02-23T23:19:25.889Z,101432.48
2023-02-23T23:21:55.988Z,101429.08
2023-02-23T23:24:25.868Z,101428.21
2023-02-23T23:26:55.863Z,101423.42
2023-02-23T23:29:25.966Z,101419.38
2023-02-23T23:31:57.588Z,101416.62
2023-02-23T23:34:26.653Z,101417.06
2023-02-23T23:36:55.653Z,101413.59
2023-02-23T23:39:26.491Z,101411.47
2023-02-23T23:41:55.688Z,101411.32
2023-02-23T23:44:29.736Z,101409.52
2023-02-23T23:46:58.861Z,101405.78
2023-02-23T23:49:27.385Z,101406.89
2023-02-23T23:51:57.070Z,101408.08
2023-02-23T23:54:28.858Z,101405.16
2023-02-23T23:57:01.677Z,101400.83
2023-02-23T23:59:31.985Z,101401.79
